createdAt,value
2019-02-19T00:02:20.922Z,13.57
2019-02-19T00:04:47.616Z,14.07
2019-02-19T00:07:14.315Z,16.57
2019-02-19T00:09:41.019Z,16.10
2019-02-19T00:12:08.314Z,17.77
2019-02-19T00:14:35.031Z,18.57
2019-02-19T00:17:01.734Z,19.87
2019-02-19T00:19:28.453Z,20.07
2019-02-19T00:21:55.151Z,21.47
2019-02-19T00:24:21.849Z,23.37
2019-02-19T00:26:48.547Z,22.43
2019-02-19T00:29:15.265Z,23.10
2019-02-19T00:31:41.975Z,23.93
2019-02-19T00:34:08.675Z,24.33
2019-02-19T00:36:35.386Z,23.10
2019-02-19T00:39:03.951Z,23.17
2019-02-19T00:41:30.678Z,23.87
2019-02-19T00:43:57.459Z,22.97
2019-02-19T00:46:24.163Z,23.10
2019-02-19T00:48:50.859Z,23.07
2019-02-19T00:51:17.563Z,22.27
2019-02-19T00:53:44.273Z,23.00
2019-02-19T00:56:11.080Z,21.00
2019-02-19T00:58:37.782Z,22.37
2019-02-19T01:01:04.504Z,20.97
2019-02-19T01:03:31.207Z,20.70
2019-02-19T01:05:57.915Z,20.73
2019-02-19T01:08:24.987Z,19.33
2019-02-19T01:10:51.787Z,19.77
2019-02-19T01:13:18.488Z,21.40
2019-02-19T01:15:45.194Z,21.10
2019-02-19T01:18:11.904Z,19.97
2019-02-19T01:20:38.707Z,21.03
2019-02-19T01:23:05.508Z,20.57
2019-02-19T01:25:32.227Z,21.20
2019-02-19T01:27:58.936Z,21.33
2019-02-19T01:30:26.452Z,21.27
2019-02-19T01:32:53.175Z,21.37
2019-02-19T01:35:19.859Z,21.23
2019-02-19T01:37:46.555Z,20.40
2019-02-19T01:40:13.259Z,20.20
2019-02-19T01:42:39.959Z,20.67
2019-02-19T01:45:07.524Z,20.13
2019-02-19T01:47:34.231Z,20.67
2019-02-19T01:50:00.947Z,19.33
2019-02-19T01:52:27.648Z,21.97
2019-02-19T01:54:54.355Z,19.77
2019-02-19T01:57:21.063Z,20.37
2019-02-19T01:59:48.083Z,20.03
2019-02-19T02:02:14.788Z,19.47
2019-02-19T02:04:41.497Z,19.60
2019-02-19T02:07:08.209Z,19.60
2019-02-19T02:09:34.915Z,19.50
2019-02-19T02:12:01.612Z,19.47
2019-02-19T02:14:28.311Z,18.83
2019-02-19T02:16:55.006Z,17.83
2019-02-19T02:19:21.719Z,16.90
2019-02-19T02:21:48.441Z,18.27
2019-02-19T02:24:15.131Z,18.53
2019-02-19T02:26:41.840Z,19.00
2019-02-19T02:29:08.640Z,19.80
2019-02-19T02:31:35.355Z,18.63
2019-02-19T02:34:02.076Z,18.67
2019-02-19T02:36:28.767Z,19.37
2019-02-19T02:38:55.472Z,17.77
2019-02-19T02:41:22.183Z,18.60
2019-02-19T02:43:48.910Z,19.13
2019-02-19T02:46:16.067Z,19.20
2019-02-19T02:48:42.980Z,17.63
2019-02-19T02:51:09.710Z,19.10
2019-02-19T02:53:36.407Z,19.60
2019-02-19T02:56:03.110Z,19.63
2019-02-19T02:58:29.924Z,18.57
2019-02-19T03:00:56.634Z,17.63
2019-02-19T03:03:23.346Z,18.23
2019-02-19T03:06:00.707Z,17.57
2019-02-19T03:08:27.415Z,17.53
2019-02-19T03:10:54.115Z,17.33
2019-02-19T03:13:20.820Z,16.23
2019-02-19T03:15:47.524Z,17.33
2019-02-19T03:18:24.517Z,18.50
2019-02-19T03:20:51.221Z,17.73
2019-02-19T03:23:18.021Z,18.57
2019-02-19T03:25:44.751Z,19.40
2019-02-19T03:28:11.449Z,19.97
2019-02-19T03:30:38.155Z,20.10
2019-02-19T03:33:04.960Z,19.93
2019-02-19T03:35:31.668Z,21.53
2019-02-19T03:37:58.395Z,20.17
2019-02-19T03:40:25.083Z,20.00
2019-02-19T03:42:51.901Z,21.33
2019-02-19T03:45:18.602Z,22.33
2019-02-19T03:47:45.312Z,23.07
2019-02-19T03:50:12.025Z,23.43
2019-02-19T03:52:38.724Z,22.33
2019-02-19T03:55:05.643Z,24.73
2019-02-19T03:57:32.348Z,23.70
2019-02-19T03:59:59.150Z,22.37
2019-02-19T04:02:25.955Z,24.10
2019-02-19T04:04:53.059Z,22.97
2019-02-19T04:07:19.756Z,22.30
2019-02-19T04:09:46.451Z,22.23
2019-02-19T04:12:13.142Z,22.47
2019-02-19T04:14:39.831Z,21.47
2019-02-19T04:17:06.547Z,21.70
2019-02-19T04:19:33.259Z,21.90
2019-02-19T04:21:59.956Z,21.50
2019-02-19T04:24:26.663Z,21.77
2019-02-19T04:26:53.364Z,21.33
2019-02-19T04:29:20.068Z,20.30
2019-02-19T04:31:46.796Z,21.83
2019-02-19T04:34:13.499Z,20.27
2019-02-19T04:36:40.208Z,20.80
2019-02-19T04:39:06.934Z,20.13
2019-02-19T04:41:33.647Z,20.07
2019-02-19T04:44:00.343Z,20.33
2019-02-19T04:46:31.515Z,19.37
2019-02-19T04:48:55.650Z,19.13
2019-02-19T04:51:22.351Z,17.97
2019-02-19T04:53:49.047Z,17.27
2019-02-19T04:56:15.757Z,17.87
2019-02-19T04:58:42.707Z,16.83
2019-02-19T05:01:09.504Z,17.67
2019-02-19T05:03:36.208Z,17.80
2019-02-19T05:06:02.922Z,16.73
2019-02-19T05:08:29.631Z,17.10
2019-02-19T05:10:56.452Z,16.30
2019-02-19T05:13:23.177Z,16.70
2019-02-19T05:15:49.962Z,17.47
2019-02-19T05:18:16.663Z,15.37
2019-02-19T05:20:43.372Z,15.20
2019-02-19T05:23:10.085Z,16.43
2019-02-19T05:25:36.793Z,16.10
2019-02-19T05:28:03.684Z,15.67
2019-02-19T05:30:30.479Z,14.33
2019-02-19T05:32:57.186Z,14.23
2019-02-19T05:35:23.892Z,15.27
2019-02-19T05:37:50.599Z,14.97
2019-02-19T05:40:17.298Z,14.93
2019-02-19T05:42:44.008Z,15.00
2019-02-19T05:45:10.898Z,14.50
2019-02-19T05:47:37.624Z,15.10
2019-02-19T05:50:04.943Z,15.73
2019-02-19T05:52:31.647Z,15.70
2019-02-19T05:54:58.348Z,15.80
2019-02-19T05:57:25.041Z,19.07
2019-02-19T05:59:52.004Z,17.47
2019-02-19T06:02:18.720Z,16.27
2019-02-19T06:04:45.431Z,15.90
2019-02-19T06:07:12.132Z,17.33
2019-02-19T06:09:39.072Z,15.77
2019-02-19T06:12:05.776Z,17.87
2019-02-19T06:14:32.471Z,18.07
2019-02-19T06:16:59.259Z,17.70
2019-02-19T06:19:25.972Z,18.50
2019-02-19T06:21:52.696Z,17.33
2019-02-19T06:24:19.407Z,18.67
2019-02-19T06:26:46.107Z,17.67
2019-02-19T06:29:12.819Z,18.93
2019-02-19T06:31:39.523Z,19.60
2019-02-19T06:34:06.419Z,19.83
2019-02-19T06:36:33.123Z,18.23
2019-02-19T06:38:59.862Z,19.37
2019-02-19T06:41:26.635Z,20.17
2019-02-19T06:43:53.323Z,20.83
2019-02-19T06:46:20.383Z,19.93
2019-02-19T06:48:47.089Z,20.53
2019-02-19T06:51:14.075Z,21.03
2019-02-19T06:53:40.775Z,20.30
2019-02-19T06:56:07.476Z,19.97
2019-02-19T06:58:34.182Z,20.67
2019-02-19T07:01:01.123Z,21.27
2019-02-19T07:03:47.559Z,20.73
2019-02-19T07:06:14.251Z,21.13
2019-02-19T07:08:40.959Z,21.03
2019-02-19T07:11:07.649Z,21.67
2019-02-19T07:13:34.360Z,21.40
2019-02-19T07:16:01.075Z,23.23
2019-02-19T07:18:27.788Z,22.07
2019-02-19T07:20:54.492Z,20.60
2019-02-19T07:23:21.205Z,21.43
2019-02-19T07:25:47.923Z,21.53
2019-02-19T07:28:14.635Z,23.50
2019-02-19T07:30:41.343Z,21.70
2019-02-19T07:33:08.061Z,22.23
2019-02-19T07:35:34.763Z,22.20
2019-02-19T07:38:01.471Z,23.60
2019-02-19T07:40:28.171Z,22.30
2019-02-19T07:42:54.877Z,21.93
2019-02-19T07:45:21.591Z,21.50
2019-02-19T07:47:48.415Z,22.83
2019-02-19T07:50:15.132Z,22.20
2019-02-19T07:52:41.853Z,21.03
2019-02-19T07:55:08.667Z,21.20
2019-02-19T07:57:35.379Z,22.10
2019-02-19T08:00:02.345Z,20.53
2019-02-19T08:02:29.507Z,22.17
2019-02-19T08:04:56.219Z,21.07
2019-02-19T08:07:22.923Z,22.83
2019-02-19T08:09:49.639Z,21.20
2019-02-19T08:12:16.349Z,22.53
2019-02-19T08:14:43.157Z,21.50
2019-02-19T08:17:09.851Z,20.50
2019-02-19T08:19:36.584Z,21.50
2019-02-19T08:22:03.387Z,20.57
2019-02-19T08:24:30.107Z,21.37
2019-02-19T08:26:56.811Z,20.30
2019-02-19T08:29:23.521Z,21.17
2019-02-19T08:31:50.235Z,19.43
2019-02-19T08:34:16.951Z,21.00
2019-02-19T08:36:43.661Z,20.43
2019-02-19T08:39:10.371Z,19.67
2019-02-19T08:41:37.083Z,21.37
2019-02-19T08:44:03.779Z,19.83
2019-02-19T08:46:30.484Z,19.77
2019-02-19T08:48:57.503Z,18.63
2019-02-19T08:51:24.213Z,18.80
2019-02-19T08:53:50.953Z,19.10
2019-02-19T08:56:17.660Z,18.27
2019-02-19T08:58:44.372Z,17.57
2019-02-19T09:01:11.106Z,17.33
2019-02-19T09:03:37.817Z,17.20
2019-02-19T09:06:04.642Z,15.57
2019-02-19T09:08:31.433Z,15.47
2019-02-19T09:10:58.153Z,14.23
2019-02-19T09:13:24.852Z,14.17
2019-02-19T09:15:51.558Z,13.57
2019-02-19T09:18:18.385Z,12.77
2019-02-19T09:20:45.089Z,11.60
2019-02-19T09:23:11.786Z,11.07
2019-02-19T09:25:38.492Z,10.77
2019-02-19T09:28:05.207Z,10.53
2019-02-19T09:30:31.913Z,10.67
2019-02-19T09:32:58.620Z,10.13
2019-02-19T09:35:25.343Z,9.67
2019-02-19T09:37:52.049Z,9.23
2019-02-19T09:40:18.874Z,9.23
2019-02-19T09:42:45.579Z,8.80
2019-02-19T09:45:12.291Z,9.27
2019-02-19T09:47:39.096Z,8.53
2019-02-19T09:50:06.343Z,8.40
2019-02-19T09:52:33.062Z,8.20
2019-02-19T09:54:59.775Z,8.33
2019-02-19T09:57:26.480Z,7.47
2019-02-19T09:59:53.280Z,8.03
2019-02-19T10:02:19.997Z,7.53
2019-02-19T10:04:46.713Z,7.80
2019-02-19T10:07:13.411Z,7.43
2019-02-19T10:09:40.131Z,7.63
2019-02-19T10:12:06.832Z,7.40
2019-02-19T10:14:33.524Z,7.50
2019-02-19T10:17:00.231Z,7.17
2019-02-19T10:19:26.932Z,7.53
2019-02-19T10:21:53.644Z,7.57
2019-02-19T10:24:20.352Z,7.77
2019-02-19T10:26:47.155Z,7.37
2019-02-19T10:29:13.864Z,7.30
2019-02-19T10:31:40.556Z,7.10
2019-02-19T10:34:07.268Z,6.83
2019-02-19T10:36:34.072Z,8.00
2019-02-19T10:39:00.791Z,5.93
2019-02-19T10:41:27.515Z,7.47
2019-02-19T10:43:54.231Z,6.83
2019-02-19T10:46:20.936Z,7.07
2019-02-19T10:48:47.744Z,6.83
2019-02-19T10:51:14.443Z,6.97
2019-02-19T10:53:41.139Z,7.23
2019-02-19T10:56:07.939Z,7.80
2019-02-19T10:58:34.648Z,7.73
2019-02-19T11:01:01.352Z,7.53
2019-02-19T11:03:28.055Z,7.23
2019-02-19T11:05:54.759Z,6.63
2019-02-19T11:08:21.477Z,6.67
2019-02-19T11:10:48.501Z,7.00
2019-02-19T11:13:15.203Z,6.77
2019-02-19T11:15:41.903Z,6.37
2019-02-19T11:18:08.588Z,6.80
2019-02-19T11:20:35.309Z,6.43
2019-02-19T11:23:02.009Z,6.87
2019-02-19T11:25:28.705Z,6.10
2019-02-19T11:27:55.403Z,7.10
2019-02-19T11:30:23.896Z,7.77
2019-02-19T11:32:50.645Z,6.57
2019-02-19T11:35:17.439Z,7.43
2019-02-19T11:37:44.254Z,6.90
2019-02-19T11:40:11.055Z,7.20
2019-02-19T11:42:37.772Z,7.13
2019-02-19T11:45:06.224Z,7.00
2019-02-19T11:47:33.047Z,7.23
2019-02-19T11:49:59.998Z,7.30
2019-02-19T11:52:26.707Z,7.70
2019-02-19T11:54:53.408Z,7.93
2019-02-19T11:57:20.484Z,8.13
2019-02-19T11:59:47.188Z,7.83
2019-02-19T12:02:14.975Z,7.20
2019-02-19T12:04:41.920Z,7.27
2019-02-19T12:07:08.634Z,6.90
2019-02-19T12:09:35.343Z,8.03
2019-02-19T12:12:02.060Z,8.37
2019-02-19T12:14:48.506Z,6.30
2019-02-19T12:17:15.213Z,6.50
2019-02-19T12:19:41.903Z,6.53
2019-02-19T12:22:08.617Z,6.97
2019-02-19T12:24:35.308Z,6.30
2019-02-19T12:27:02.016Z,6.97
2019-02-19T12:29:28.728Z,7.00
2019-02-19T12:31:55.446Z,6.30
2019-02-19T12:34:22.149Z,7.10
2019-02-19T12:36:48.851Z,6.77
2019-02-19T12:39:15.546Z,7.03
2019-02-19T12:41:42.250Z,6.70
2019-02-19T12:44:08.947Z,6.90
2019-02-19T12:46:35.991Z,7.10
2019-02-19T12:49:02.899Z,6.13
2019-02-19T12:51:29.706Z,6.73
2019-02-19T12:53:56.403Z,6.47
2019-02-19T12:56:23.115Z,6.20
2019-02-19T12:58:49.955Z,6.73
2019-02-19T13:01:16.626Z,6.90
2019-02-19T13:03:43.334Z,6.47
2019-02-19T13:06:10.028Z,6.80
2019-02-19T13:08:36.719Z,6.47
2019-02-19T13:11:03.416Z,6.20
2019-02-19T13:13:30.123Z,5.80
2019-02-19T13:15:56.819Z,5.50
2019-02-19T13:18:23.926Z,6.13
2019-02-19T13:20:50.613Z,6.23
2019-02-19T13:23:17.319Z,5.93
2019-02-19T13:25:44.128Z,6.23
2019-02-19T13:28:10.824Z,5.83
2019-02-19T13:30:37.523Z,5.83
2019-02-19T13:33:04.223Z,6.17
2019-02-19T13:35:31.248Z,5.97
2019-02-19T13:37:57.943Z,6.67
2019-02-19T13:40:24.680Z,6.53
2019-02-19T13:42:51.363Z,8.00
2019-02-19T13:45:18.371Z,8.67
2019-02-19T13:47:45.186Z,9.17
2019-02-19T13:50:16.605Z,9.70
2019-02-19T13:53:06.134Z,9.07
2019-02-19T13:55:35.951Z,10.53
2019-02-19T13:58:02.746Z,9.87
2019-02-19T14:00:31.259Z,10.50
2019-02-19T14:02:57.978Z,10.07
2019-02-19T14:05:24.662Z,10.07
2019-02-19T14:07:51.360Z,10.43
2019-02-19T14:10:18.048Z,9.03
2019-02-19T14:12:45.174Z,9.50
2019-02-19T14:15:34.660Z,10.40
2019-02-19T14:18:02.270Z,10.07
2019-02-19T14:20:51.300Z,9.77
2019-02-19T14:23:36.054Z,9.17
2019-02-19T14:26:15.274Z,10.30
2019-02-19T14:28:50.312Z,9.20
2019-02-19T14:31:35.384Z,8.20
2019-02-19T14:34:27.883Z,8.67
2019-02-19T14:37:03.683Z,8.80
2019-02-19T14:39:56.116Z,7.53
2019-02-19T14:42:42.596Z,7.70
2019-02-19T14:45:29.612Z,7.27
2019-02-19T14:48:14.419Z,8.20
2019-02-19T14:51:16.470Z,6.80
2019-02-19T14:54:01.465Z,7.77
2019-02-19T14:56:42.523Z,7.80
2019-02-19T14:59:27.280Z,7.93
2019-02-19T15:02:12.454Z,8.33
2019-02-19T15:04:57.451Z,7.30
2019-02-19T15:07:38.932Z,8.20
2019-02-19T15:10:43.839Z,7.17
2019-02-19T15:13:16.635Z,7.63
2019-02-19T15:15:58.611Z,7.20
2019-02-19T15:18:35.384Z,7.40
2019-02-19T15:21:39.775Z,6.87
2019-02-19T15:24:48.444Z,7.27
2019-02-19T15:27:27.160Z,6.80
2019-02-19T15:30:07.689Z,6.90
2019-02-19T15:32:52.642Z,6.83
2019-02-19T15:35:40.635Z,6.80
2019-02-19T15:38:17.617Z,6.50
2019-02-19T15:41:05.756Z,6.63
2019-02-19T15:43:36.707Z,6.60
2019-02-19T15:46:34.888Z,6.57
2019-02-19T15:49:16.671Z,6.27
2019-02-19T15:51:54.157Z,6.03
2019-02-19T15:54:36.379Z,6.13
2019-02-19T15:57:21.436Z,5.53
2019-02-19T16:00:16.700Z,5.67
2019-02-19T16:03:06.038Z,5.63
2019-02-19T16:05:45.862Z,5.37
2019-02-19T16:08:32.833Z,5.40
2019-02-19T16:11:07.606Z,5.70
2019-02-19T16:13:59.739Z,4.20
2019-02-19T16:16:48.929Z,4.60
2019-02-19T16:19:23.795Z,4.80
2019-02-19T16:22:11.535Z,4.20
2019-02-19T16:25:06.519Z,4.83
2019-02-19T16:27:52.369Z,5.00
2019-02-19T16:30:37.247Z,4.47
2019-02-19T16:33:23.631Z,5.00
2019-02-19T16:35:58.767Z,4.87
2019-02-19T16:38:33.594Z,4.40
2019-02-19T16:41:35.070Z,4.40
2019-02-19T16:44:21.444Z,4.10
2019-02-19T16:47:06.840Z,4.40
2019-02-19T16:49:44.323Z,5.30
2019-02-19T16:52:39.565Z,4.20
2019-02-19T16:55:26.952Z,4.27
2019-02-19T16:57:59.811Z,4.73
2019-02-19T17:00:44.868Z,4.00
2019-02-19T17:03:24.049Z,4.03
2019-02-19T17:06:05.429Z,4.20
2019-02-19T17:08:50.443Z,4.77
2019-02-19T17:11:35.239Z,4.63
2019-02-19T17:14:33.739Z,4.33
2019-02-19T17:17:12.014Z,3.73
2019-02-19T17:20:00.888Z,3.57
2019-02-19T17:22:50.243Z,3.87
2019-02-19T17:25:31.880Z,3.83
2019-02-19T17:28:27.508Z,3.20
2019-02-19T17:31:03.666Z,3.77
2019-02-19T17:33:48.442Z,4.37
2019-02-19T17:36:50.150Z,3.60
2019-02-19T17:39:28.294Z,3.60
2019-02-19T17:42:14.766Z,3.23
2019-02-19T17:44:51.160Z,3.70
2019-02-19T17:47:25.747Z,3.83
2019-02-19T17:50:02.545Z,3.83
2019-02-19T17:52:58.018Z,3.43
2019-02-19T17:55:33.527Z,3.30
2019-02-19T17:58:09.286Z,3.47
2019-02-19T18:00:48.579Z,3.80
2019-02-19T18:03:28.612Z,3.43
2019-02-19T18:06:11.477Z,3.70
2019-02-19T18:09:00.648Z,3.50
2019-02-19T18:11:49.710Z,3.33
2019-02-19T18:14:39.795Z,3.40
2019-02-19T18:17:12.172Z,3.57
2019-02-19T18:19:38.889Z,3.30
2019-02-19T18:22:05.583Z,3.80
2019-02-19T18:24:32.301Z,3.80
2019-02-19T18:26:59.660Z,3.93
2019-02-19T18:29:26.367Z,3.40
2019-02-19T18:31:53.075Z,3.50
2019-02-19T18:34:19.790Z,3.60
2019-02-19T18:36:46.495Z,3.67
2019-02-19T18:39:13.443Z,3.40
2019-02-19T18:41:40.152Z,3.63
2019-02-19T18:44:06.959Z,3.97
2019-02-19T18:46:33.680Z,3.40
2019-02-19T18:49:00.407Z,3.73
2019-02-19T18:51:27.131Z,3.57
2019-02-19T18:53:53.839Z,3.63
2019-02-19T18:56:20.658Z,3.73
2019-02-19T18:58:47.368Z,3.43
2019-02-19T19:01:14.071Z,3.63
2019-02-19T19:03:40.835Z,3.80
2019-02-19T19:06:07.911Z,3.67
2019-02-19T19:08:34.635Z,3.67
2019-02-19T19:11:01.343Z,3.30
2019-02-19T19:13:28.175Z,3.87
2019-02-19T19:15:54.892Z,3.63
2019-02-19T19:18:21.612Z,3.90
2019-02-19T19:20:48.340Z,3.13
2019-02-19T19:23:16.052Z,3.27
2019-02-19T19:25:42.853Z,3.33
2019-02-19T19:28:09.543Z,3.20
2019-02-19T19:30:36.245Z,3.10
2019-02-19T19:33:03.046Z,3.10
2019-02-19T19:35:29.755Z,3.63
2019-02-19T19:37:56.459Z,3.73
2019-02-19T19:40:23.171Z,3.70
2019-02-19T19:42:49.884Z,3.80
2019-02-19T19:45:16.595Z,3.90
2019-02-19T19:47:43.311Z,3.90
2019-02-19T19:50:10.137Z,4.33
2019-02-19T19:52:37.051Z,3.73
2019-02-19T19:55:04.241Z,4.17
2019-02-19T19:57:30.944Z,4.07
2019-02-19T19:59:57.659Z,3.90
2019-02-19T20:02:24.367Z,4.30
2019-02-19T20:04:51.327Z,3.60
2019-02-19T20:07:18.045Z,4.00
2019-02-19T20:09:44.747Z,3.90
2019-02-19T20:12:11.460Z,4.50
2019-02-19T20:14:38.171Z,4.27
2019-02-19T20:17:04.893Z,4.40
2019-02-19T20:19:31.608Z,4.33
2019-02-19T20:21:58.301Z,4.53
2019-02-19T20:24:25.010Z,4.67
2019-02-19T20:26:51.705Z,5.03
2019-02-19T20:29:18.428Z,5.37
2019-02-19T20:31:45.130Z,6.47
2019-02-19T20:34:11.839Z,7.50
2019-02-19T20:36:38.540Z,7.90
2019-02-19T20:39:05.375Z,7.03
2019-02-19T20:41:32.090Z,7.67
2019-02-19T20:43:58.789Z,6.97
2019-02-19T20:46:25.515Z,7.57
2019-02-19T20:48:52.231Z,8.33
2019-02-19T20:51:18.948Z,8.13
2019-02-19T20:53:45.655Z,8.77
2019-02-19T20:56:12.355Z,9.03
2019-02-19T20:58:39.084Z,9.53
2019-02-19T21:01:05.893Z,9.90
2019-02-19T21:03:32.589Z,11.07
2019-02-19T21:06:02.391Z,10.10
2019-02-19T21:08:29.083Z,11.03
2019-02-19T21:10:55.779Z,12.00
2019-02-19T21:13:22.491Z,11.47
2019-02-19T21:15:49.195Z,11.90
2019-02-19T21:18:15.912Z,12.47
2019-02-19T21:20:42.620Z,13.27
2019-02-19T21:23:09.372Z,14.80
2019-02-19T21:25:36.071Z,14.20
2019-02-19T21:28:02.902Z,14.43
2019-02-19T21:30:29.595Z,14.73
2019-02-19T21:32:56.287Z,15.37
2019-02-19T21:35:23.095Z,14.50
2019-02-19T21:37:49.812Z,14.33
2019-02-19T21:40:16.511Z,14.43
2019-02-19T21:42:43.227Z,14.80
2019-02-19T21:45:10.161Z,14.63
2019-02-19T21:47:36.863Z,15.37
2019-02-19T21:50:04.419Z,15.07
2019-02-19T21:52:31.124Z,14.47
2019-02-19T21:54:57.820Z,15.60
2019-02-19T21:57:24.521Z,16.07
2019-02-19T21:59:51.222Z,16.03
2019-02-19T22:02:17.935Z,17.47
2019-02-19T22:04:44.648Z,16.40
2019-02-19T22:07:11.352Z,16.23
2019-02-19T22:09:38.055Z,14.90
2019-02-19T22:12:04.752Z,14.03
2019-02-19T22:14:31.477Z,14.47
2019-02-19T22:16:58.175Z,14.10
2019-02-19T22:19:24.880Z,13.67
2019-02-19T22:22:03.410Z,13.47
2019-02-19T22:24:34.764Z,13.57
2019-02-19T22:27:02.482Z,13.70
2019-02-19T22:29:29.271Z,13.43
2019-02-19T22:31:55.980Z,13.70
2019-02-19T22:34:22.687Z,13.40
2019-02-19T22:36:49.393Z,14.77
2019-02-19T22:39:16.099Z,13.73
2019-02-19T22:41:42.799Z,14.00
2019-02-19T22:44:09.515Z,13.93
2019-02-19T22:46:36.223Z,13.00
2019-02-19T22:49:02.923Z,13.00
2019-02-19T22:51:29.640Z,12.50
2019-02-19T22:54:02.599Z,13.03
2019-02-19T22:56:32.343Z,13.17
2019-02-19T22:58:59.039Z,12.43
2019-02-19T23:01:35.219Z,12.87
2019-02-19T23:04:01.933Z,11.30
2019-02-19T23:06:29.248Z,11.50
2019-02-19T23:08:55.967Z,11.30
2019-02-19T23:11:22.667Z,10.77
2019-02-19T23:13:49.375Z,11.00
2019-02-19T23:16:16.079Z,11.00
2019-02-19T23:18:42.779Z,11.13
2019-02-19T23:21:09.885Z,10.43
2019-02-19T23:23:36.920Z,10.10
2019-02-19T23:26:03.722Z,10.03
2019-02-19T23:28:30.427Z,10.30
2019-02-19T23:30:57.139Z,8.97
2019-02-19T23:33:23.855Z,10.20
2019-02-19T23:35:55.331Z,10.07
2019-02-19T23:38:22.036Z,9.20
2019-02-19T23:40:48.747Z,9.40
2019-02-19T23:43:15.447Z,9.13
2019-02-19T23:45:42.599Z,9.10
2019-02-19T23:48:09.304Z,9.40
2019-02-19T23:50:35.999Z,9.27
2019-02-19T23:53:02.703Z,8.90
2019-02-19T23:55:29.404Z,8.73
2019-02-19T23:57:56.107Z,9.13
